Time;durP1;ratioP1;P1;durP2;ratioP2;P2;SDS_P1;SDS_P2;PMS_P1;PMS_P2;Temp;Humidity;BMP_temperature;BMP_pressure;BME280_temperature;BME280_humidity;BME280_pressure;Samples;Min_cycle;Max_cycle;Signal;HPM_P1;HPM_P2
2021/01/02 00:00:23;;;;;;;27.85;17.42;;;1.20;99.90;;;;;;5073883;28;20045;-66
2021/01/02 00:03:03;;;;;;;30.35;16.95;;;1.20;99.90;;;;;;5073417;28;20044;-66
2021/01/02 00:05:43;;;;;;;29.67;16.85;;;1.20;99.90;;;;;;5068380;28;20528;-66
2021/01/02 00:08:19;;;;;;;28.42;16.33;;;1.10;99.90;;;;;;5053886;28;20703;-66
2021/01/02 00:11:21;;;;;;;29.52;17.17;;;1.10;99.90;;;;;;5068319;28;20056;-66
2021/01/02 00:13:55;;;;;;;31.33;16.77;;;1.10;99.90;;;;;;5048287;28;20075;-65
2021/01/02 00:17:03;;;;;;;32.65;17.27;;;1.10;99.90;;;;;;5077457;28;20127;-67
2021/01/02 00:19:51;;;;;;;28.45;15.82;;;1.10;99.90;;;;;;5066574;28;20040;-66
2021/01/02 00:22:33;;;;;;;24.73;15.23;;;1.10;99.90;;;;;;5075874;28;20053;-68
2021/01/02 00:25:04;;;;;;;30.55;16.05;;;1.00;99.90;;;;;;5067669;28;20464;-68
2021/01/02 00:28:03;;;;;;;28.23;16.30;;;1.10;99.90;;;;;;5067582;28;20414;-66
2021/01/02 00:30:47;;;;;;;28.85;15.50;;;1.10;99.90;;;;;;5070220;28;20498;-66
2021/01/02 00:33:18;;;;;;;26.90;15.57;;;1.10;99.90;;;;;;5075565;28;20058;-66
2021/01/02 00:35:49;;;;;;;25.20;15.52;;;1.00;99.90;;;;;;5055811;28;20132;-66
2021/01/02 00:38:17;;;;;;;29.13;16.73;;;1.00;99.90;;;;;;5072106;28;20044;-66
2021/01/02 00:40:43;;;;;;;27.80;16.45;;;0.90;99.90;;;;;;5073032;28;20036;-67
2021/01/02 00:43:10;;;;;;;27.33;16.30;;;0.90;99.90;;;;;;5073038;28;20049;-66
2021/01/02 00:45:37;;;;;;;27.33;15.27;;;0.90;99.90;;;;;;5071516;28;20044;-66
2021/01/02 00:48:04;;;;;;;24.80;15.77;;;0.80;99.90;;;;;;5070397;28;20658;-68
2021/01/02 00:50:32;;;;;;;26.55;16.17;;;0.70;99.90;;;;;;5072865;28;20402;-66
2021/01/02 00:53:30;;;;;;;25.70;15.57;;;0.70;99.90;;;;;;5072734;28;20422;-66
2021/01/02 00:56:02;;;;;;;26.00;15.98;;;0.60;99.90;;;;;;5072652;28;20045;-66
2021/01/02 00:58:48;;;;;;;25.25;15.73;;;0.60;99.90;;;;;;5072247;28;20041;-66
2021/01/02 01:01:25;;;;;;;27.27;16.75;;;0.50;99.90;;;;;;5071102;28;20044;-67
2021/01/02 01:04:43;;;;;;;24.00;14.63;;;0.50;99.90;;;;;;5071351;28;20041;-66
2021/01/02 01:07:17;;;;;;;25.23;15.88;;;0.50;99.90;;;;;;5041532;28;20443;-66
2021/01/02 01:09:50;;;;;;;25.70;15.82;;;0.50;99.90;;;;;;5066677;28;20045;-67
2021/01/02 01:12:18;;;;;;;26.02;16.80;;;0.50;99.90;;;;;;5066223;28;20140;-67
2021/01/02 01:14:46;;;;;;;26.00;15.65;;;0.50;99.90;;;;;;5072451;28;20043;-67
2021/01/02 01:17:20;;;;;;;26.23;15.40;;;0.50;99.90;;;;;;5070939;28;20044;-67
2021/01/02 01:19:53;;;;;;;24.63;14.95;;;0.50;99.90;;;;;;5060412;28;20525;-68
2021/01/02 01:22:26;;;;;;;26.13;15.32;;;0.50;99.90;;;;;;5071122;28;20139;-68
2021/01/02 01:24:55;;;;;;;;;;;0.50;99.90;;;;;;5072955;28;20049;-68
2021/01/02 01:27:30;;;;;;;27.20;15.82;;;0.50;99.90;;;;;;5070409;28;19920;-68
2021/01/02 01:29:59;;;;;;;28.90;17.15;;;0.50;99.90;;;;;;5071421;28;20506;-68
2021/01/02 01:32:28;;;;;;;27.85;16.65;;;0.50;99.90;;;;;;5070673;28;20048;-68
2021/01/02 01:35:00;;;;;;;27.50;16.33;;;0.50;99.90;;;;;;5060756;28;20048;-68
2021/01/02 01:37:32;;;;;;;25.20;15.45;;;0.50;99.90;;;;;;5087003;28;20136;-68
2021/01/02 01:40:00;;;;;;;24.90;15.35;;;0.50;99.90;;;;;;5052421;28;20046;-68
2021/01/02 01:42:41;;;;;;;24.55;15.77;;;0.50;99.90;;;;;;5068572;28;20465;-68
2021/01/02 01:45:23;;;;;;;25.25;16.05;;;0.60;99.90;;;;;;5054222;28;20059;-68
2021/01/02 01:48:02;;;;;;;26.73;15.02;;;0.60;99.90;;;;;;5069969;28;20066;-67
2021/01/02 01:51:01;;;;;;;26.88;17.13;;;0.60;99.90;;;;;;5070193;28;20445;-68
2021/01/02 01:53:52;;;;;;;23.15;14.65;;;0.60;99.90;;;;;;5070618;28;20155;-68
2021/01/02 01:56:29;;;;;;;25.73;15.67;;;0.60;99.90;;;;;;5070429;28;20043;-68
2021/01/02 01:59:20;;;;;;;25.45;16.10;;;0.60;99.90;;;;;;5067268;28;20044;-68
2021/01/02 02:01:49;;;;;;;24.77;14.85;;;0.60;99.90;;;;;;5069970;28;20394;-67
2021/01/02 02:04:56;;;;;;;26.83;15.20;;;0.60;99.90;;;;;;5071404;28;20127;-67
2021/01/02 02:07:44;;;;;;;25.63;15.05;;;0.50;99.90;;;;;;5061048;28;20037;-66
2021/01/02 02:10:26;;;;;;;25.80;15.38;;;0.50;99.90;;;;;;5062714;28;20067;-66
2021/01/02 02:12:54;;;;;;;24.77;14.07;;;0.50;99.90;;;;;;5066564;28;20053;-66
2021/01/02 02:15:26;;;;;;;26.77;15.25;;;0.50;99.90;;;;;;5064274;28;20040;-66
2021/01/02 02:18:04;;;;;;;25.10;14.82;;;0.50;99.90;;;;;;5069787;28;20072;-66
2021/01/02 02:20:33;;;;;;;26.73;15.10;;;0.50;99.90;;;;;;5066962;28;20044;-66
2021/01/02 02:23:03;;;;;;;26.00;14.93;;;0.40;99.90;;;;;;5069800;28;20454;-66
2021/01/02 02:25:48;;;;;;;25.00;15.48;;;0.40;99.90;;;;;;5064857;28;20095;-66
2021/01/02 02:28:52;;;;;;;25.65;15.27;;;0.40;99.90;;;;;;5052151;28;20052;-66
2021/01/02 02:31:26;;;;;;;29.48;16.05;;;0.50;99.90;;;;;;5068538;28;20359;-66
2021/01/02 02:34:00;;;;;;;25.75;15.38;;;0.50;99.90;;;;;;5064897;28;20495;-66
2021/01/02 02:36:32;;;;;;;26.67;15.15;;;0.50;99.90;;;;;;5070728;28;20048;-67
2021/01/02 02:39:04;;;;;;;25.88;15.38;;;0.60;99.90;;;;;;5069753;28;20040;-66
2021/01/02 02:41:32;;;;;;;23.95;14.82;;;0.60;99.90;;;;;;5058263;28;20060;-66
2021/01/02 02:44:02;;;;;;;24.10;14.20;;;0.60;99.90;;;;;;5069203;28;20048;-66
2021/01/02 02:46:33;;;;;;;29.95;16.60;;;0.60;99.90;;;;;;5063274;28;20047;-66
2021/01/02 02:49:06;;;;;;;27.60;15.80;;;0.60;99.90;;;;;;5070740;28;20135;-66
2021/01/02 02:51:42;;;;;;;26.25;14.43;;;0.60;99.90;;;;;;5063389;28;20045;-67
2021/01/02 02:54:09;;;;;;;25.15;14.98;;;0.60;99.90;;;;;;5068899;28;20055;-66
2021/01/02 02:56:36;;;;;;;24.70;14.68;;;0.50;99.90;;;;;;5070928;28;20459;-66
2021/01/02 02:59:03;;;;;;;24.27;15.25;;;0.50;99.90;;;;;;5052953;28;20041;-66
2021/01/02 03:01:31;;;;;;;24.20;14.15;;;0.50;99.90;;;;;;5070822;28;20049;-67
2021/01/02 03:03:58;;;;;;;25.38;14.80;;;0.50;99.90;;;;;;5071029;28;20051;-66
2021/01/02 03:06:30;;;;;;;26.10;15.90;;;0.50;99.90;;;;;;5070719;28;20045;-66
2021/01/02 03:08:57;;;;;;;27.65;16.40;;;0.60;99.90;;;;;;5060920;28;20068;-66
2021/01/02 03:11:25;;;;;;;29.27;17.15;;;0.60;99.90;;;;;;5067709;28;20045;-66
2021/01/02 03:13:53;;;;;;;27.35;15.20;;;0.70;99.90;;;;;;5071076;28;20056;-66
2021/01/02 03:16:23;;;;;;;29.52;17.20;;;0.70;99.90;;;;;;5062588;28;20056;-66
2021/01/02 03:18:49;;;;;;;30.40;17.33;;;0.70;99.90;;;;;;5070797;28;20287;-65
2021/01/02 03:21:16;;;;;;;31.13;17.38;;;0.70;99.90;;;;;;5069590;28;20036;-65
2021/01/02 03:23:46;;;;;;;32.20;18.15;;;0.70;99.90;;;;;;5070308;28;20048;-65
2021/01/02 03:26:13;;;;;;;30.67;17.50;;;0.70;99.90;;;;;;5070539;28;20067;-66
2021/01/02 03:28:40;;;;;;;35.55;18.85;;;0.60;99.90;;;;;;5061719;28;20052;-67
2021/01/02 03:31:06;;;;;;;33.58;17.00;;;0.60;99.90;;;;;;5061704;28;20052;-66
2021/01/02 03:33:33;;;;;;;31.50;17.40;;;0.60;99.90;;;;;;5070215;28;20055;-66
2021/01/02 03:36:01;;;;;;;30.20;15.88;;;0.60;99.90;;;;;;5070265;28;20063;-66
2021/01/02 03:38:34;;;;;;;31.40;17.80;;;0.60;99.90;;;;;;5052463;28;20041;-67
2021/01/02 03:41:01;;;;;;;32.83;17.33;;;0.60;99.90;;;;;;5069413;28;20088;-65
2021/01/02 03:43:28;;;;;;;31.77;17.60;;;0.50;99.90;;;;;;5069048;28;20487;-67
2021/01/02 03:45:55;;;;;;;30.80;16.83;;;0.60;99.90;;;;;;5070407;28;20098;-67
2021/01/02 03:48:22;;;;;;;29.75;16.75;;;0.50;99.90;;;;;;5069590;28;20056;-67
2021/01/02 03:50:49;;;;;;;31.65;16.73;;;0.50;99.90;;;;;;5073033;28;20054;-66
2021/01/02 03:53:16;;;;;;;28.40;16.05;;;0.50;99.90;;;;;;5073816;28;20048;-66
2021/01/02 03:55:42;;;;;;;31.38;17.02;;;0.50;99.90;;;;;;5073710;28;20051;-67
2021/01/02 03:58:09;;;;;;;32.25;17.27;;;0.40;99.90;;;;;;5073237;28;20071;-66
2021/01/02 04:00:35;;;;;;;31.35;16.90;;;0.40;99.90;;;;;;5072720;28;20533;-66
2021/01/02 04:03:02;;;;;;;35.25;19.70;;;0.50;99.90;;;;;;5073445;28;20044;-66
2021/01/02 04:05:28;;;;;;;35.25;19.70;;;0.50;99.90;;;;;;5072640;28;20437;-66
2021/01/02 04:07:55;;;;;;;33.72;18.95;;;0.50;99.90;;;;;;5073828;28;20052;-67
2021/01/02 04:10:21;;;;;;;34.20;19.08;;;0.50;99.90;;;;;;5071753;28;20052;-65
2021/01/02 04:12:47;;;;;;;33.85;18.75;;;0.50;99.90;;;;;;5072535;28;20059;-66
2021/01/02 04:15:14;;;;;;;33.70;18.50;;;0.50;99.90;;;;;;5080535;28;20467;-65
2021/01/02 04:17:40;;;;;;;44.22;19.25;;;0.40;99.90;;;;;;5075803;28;20478;-65
2021/01/02 04:20:07;;;;;;;38.72;19.27;;;0.50;99.90;;;;;;5064803;28;20045;-66
2021/01/02 04:22:34;;;;;;;34.55;17.48;;;0.40;99.90;;;;;;5068294;28;20044;-66
2021/01/02 04:25:01;;;;;;;38.88;19.00;;;0.40;99.90;;;;;;5072064;28;20084;-66
2021/01/02 04:27:28;;;;;;;34.53;18.55;;;0.40;99.90;;;;;;5054944;28;20052;-66
2021/01/02 04:29:54;;;;;;;36.95;18.48;;;0.40;99.90;;;;;;5072273;28;20063;-66
2021/01/02 04:32:20;;;;;;;33.95;17.17;;;0.50;99.90;;;;;;5073095;28;20053;-66
2021/01/02 04:34:47;;;;;;;33.72;18.92;;;0.50;99.90;;;;;;5073286;28;20048;-66
2021/01/02 04:37:14;;;;;;;36.53;19.55;;;0.50;99.90;;;;;;5073165;28;20044;-66
2021/01/02 04:39:41;;;;;;;30.52;17.13;;;0.50;99.90;;;;;;5067410;28;20055;-66
2021/01/02 04:42:08;;;;;;;30.75;16.58;;;0.50;99.90;;;;;;5070966;28;20051;-67
2021/01/02 04:44:35;;;;;;;31.17;16.70;;;0.50;99.90;;;;;;5066783;28;20041;-66
2021/01/02 04:47:03;;;;;;;29.90;17.38;;;0.50;99.90;;;;;;5068817;28;20379;-66
2021/01/02 04:49:30;;;;;;;33.28;17.08;;;0.50;99.90;;;;;;5068784;28;20052;-67
2021/01/02 04:52:03;;;;;;;32.13;17.10;;;0.50;99.90;;;;;;5067353;28;20404;-66
2021/01/02 04:54:31;;;;;;;32.53;15.70;;;0.50;99.90;;;;;;5070473;28;20053;-66
2021/01/02 04:57:00;;;;;;;29.10;15.70;;;0.60;99.90;;;;;;5064629;28;20506;-67
2021/01/02 04:59:26;;;;;;;28.70;16.52;;;0.60;99.90;;;;;;5072646;28;20040;-66
2021/01/02 05:01:54;;;;;;;28.02;16.30;;;0.60;99.90;;;;;;5056149;28;20037;-66
2021/01/02 05:04:21;;;;;;;26.13;14.25;;;0.60;99.90;;;;;;5059280;28;20079;-66
2021/01/02 05:06:48;;;;;;;30.92;16.13;;;0.70;99.90;;;;;;5064120;28;20474;-66
2021/01/02 05:09:15;;;;;;;29.25;16.27;;;0.70;99.90;;;;;;5069212;28;20048;-66
2021/01/02 05:11:41;;;;;;;31.45;17.20;;;0.60;99.90;;;;;;5062021;28;20577;-66
2021/01/02 05:14:08;;;;;;;29.73;16.10;;;0.60;99.90;;;;;;5071994;28;20415;-66
2021/01/02 05:19:14;;;;;;;30.00;16.52;;;0.60;99.90;;;;;;5072256;28;20084;-67
2021/01/02 05:21:46;;;;;;;30.10;17.10;;;0.70;99.90;;;;;;5070347;28;20036;-66
2021/01/02 05:24:16;;;;;;;34.33;17.77;;;0.70;99.90;;;;;;5072266;28;20048;-66
2021/01/02 05:26:57;;;;;;;34.65;18.23;;;0.70;99.90;;;;;;5070957;28;20483;-66
2021/01/02 05:29:25;;;;;;;29.23;17.30;;;0.60;99.90;;;;;;5065809;28;20391;-66
2021/01/02 05:32:03;;;;;;;29.75;17.35;;;0.70;99.90;;;;;;5071374;28;20044;-66
2021/01/02 05:34:31;;;;;;;31.45;17.33;;;0.70;99.90;;;;;;5071532;28;20071;-66
2021/01/02 05:37:08;;;;;;;29.17;16.63;;;0.70;99.90;;;;;;5070586;28;20411;-65
2021/01/02 05:39:49;;;;;;;33.38;17.52;;;0.80;99.90;;;;;;5070666;28;20051;-65
2021/01/02 05:42:19;;;;;;;34.33;18.13;;;0.80;99.90;;;;;;5056769;28;20051;-66
2021/01/02 05:44:46;;;;;;;34.08;17.70;;;0.80;99.90;;;;;;5071235;28;20048;-66
2021/01/02 05:47:20;;;;;;;31.77;16.92;;;0.90;99.90;;;;;;5066846;28;20403;-66
2021/01/02 05:49:50;;;;;;;32.40;16.80;;;1.00;99.90;;;;;;5069646;28;20040;-66
2021/01/02 05:52:17;;;;;;;29.60;16.10;;;1.00;99.90;;;;;;5071736;28;20040;-65
2021/01/02 05:54:46;;;;;;;31.52;17.30;;;1.00;99.90;;;;;;5070007;28;20360;-66
2021/01/02 05:57:14;;;;;;;27.45;16.60;;;1.00;99.90;;;;;;5079324;28;20047;-67
2021/01/02 05:59:42;;;;;;;34.20;17.65;;;1.00;99.90;;;;;;5071153;28;20419;-67
2021/01/02 06:02:25;;;;;;;32.75;16.73;;;1.00;99.90;;;;;;5056689;28;20483;-67
2021/01/02 06:05:09;;;;;;;37.92;18.38;;;1.00;99.90;;;;;;5066852;28;20044;-67
2021/01/02 06:07:38;;;;;;;38.08;19.10;;;1.00;99.90;;;;;;5070065;28;20051;-68
2021/01/02 06:10:06;;;;;;;32.33;18.33;;;1.00;99.90;;;;;;5055778;28;20055;-67
2021/01/02 06:12:41;;;;;;;31.42;18.30;;;1.00;99.90;;;;;;5069367;28;20136;-67
2021/01/02 06:15:14;;;;;;;35.75;17.77;;;1.00;99.90;;;;;;5052009;28;20044;-67
2021/01/02 06:17:48;;;;;;;30.75;17.67;;;1.00;99.90;;;;;;5067791;28;20491;-67
2021/01/02 06:20:17;;;;;;;33.55;18.10;;;1.10;99.90;;;;;;5061524;28;20050;-67
2021/01/02 06:22:44;;;;;;;31.33;18.83;;;1.00;99.90;;;;;;5070384;28;20056;-67
2021/01/02 06:25:12;;;;;;;34.70;19.02;;;1.00;99.90;;;;;;5070172;28;20061;-67
2021/01/02 06:27:44;;;;;;;30.90;17.52;;;1.00;99.90;;;;;;5070267;28;20048;-68
2021/01/02 06:30:15;;;;;;;35.08;18.30;;;1.10;99.90;;;;;;5072942;28;20059;-67
2021/01/02 06:32:48;;;;;;;35.05;18.92;;;1.10;99.90;;;;;;5069308;28;20052;-67
2021/01/02 06:35:18;;;;;;;31.42;17.63;;;1.10;99.90;;;;;;5069624;28;20048;-67
2021/01/02 06:37:47;;;;;;;32.08;17.52;;;1.00;99.90;;;;;;5070803;28;20128;-67
2021/01/02 06:40:24;;;;;;;33.88;16.70;;;1.00;99.90;;;;;;5062901;28;20053;-67
2021/01/02 06:42:54;;;;;;;30.70;17.20;;;1.00;99.90;;;;;;5060321;28;20058;-67
2021/01/02 06:45:36;;;;;;;33.05;17.17;;;1.10;99.90;;;;;;5069752;28;20087;-67
2021/01/02 06:48:20;;;;;;;33.42;17.83;;;1.10;99.90;;;;;;5068542;28;20495;-67
2021/01/02 06:50:51;;;;;;;33.28;18.45;;;1.10;99.90;;;;;;5070521;28;20052;-67
2021/01/02 06:53:25;;;;;;;35.08;17.27;;;1.10;99.90;;;;;;5069871;28;20467;-67
2021/01/02 06:56:14;;;;;;;31.38;17.00;;;1.10;99.90;;;;;;5070951;28;20051;-67
2021/01/02 06:58:48;;;;;;;37.15;18.55;;;1.10;99.90;;;;;;5069348;28;20060;-67
2021/01/02 07:01:18;;;;;;;32.55;17.35;;;1.10;99.90;;;;;;5069697;28;20044;-67
2021/01/02 07:03:46;;;;;;;32.85;17.55;;;1.00;99.90;;;;;;5069877;28;20731;-68
2021/01/02 07:06:22;;;;;;;30.48;17.42;;;1.00;99.90;;;;;;5062503;28;20372;-67
2021/01/02 07:08:56;;;;;;;32.03;17.83;;;1.00;99.90;;;;;;5064343;28;20053;-66
2021/01/02 07:11:29;;;;;;;32.42;17.52;;;1.00;99.90;;;;;;5066298;28;20052;-67
2021/01/02 07:14:08;;;;;;;34.58;17.23;;;1.00;99.90;;;;;;5064630;28;20052;-66
2021/01/02 07:16:49;;;;;;;27.95;16.05;;;1.00;99.90;;;;;;5073316;28;20049;-66
2021/01/02 07:22:17;;;;;;;34.33;18.80;;;1.00;99.90;;;;;;5070452;28;20399;-68
2021/01/02 07:24:52;;;;;;;32.78;18.00;;;1.10;99.90;;;;;;5058284;28;20044;-68
2021/01/02 07:27:20;;;;;;;29.85;17.48;;;1.00;99.90;;;;;;5068006;28;20053;-68
2021/01/02 07:29:53;;;;;;;29.50;17.23;;;0.90;99.90;;;;;;5061497;28;20041;-70
2021/01/02 07:32:26;;;;;;;31.63;17.27;;;0.90;99.90;;;;;;5062787;28;20059;-69
2021/01/02 07:34:55;;;;;;;32.28;16.77;;;0.90;99.90;;;;;;5069061;28;20083;-69
2021/01/02 07:37:30;;;;;;;29.98;17.15;;;0.90;99.90;;;;;;5063340;28;20044;-69
2021/01/02 07:40:04;;;;;;;29.10;16.42;;;0.80;99.90;;;;;;5071472;28;20076;-69
2021/01/02 07:42:33;;;;;;;33.85;18.45;;;0.90;99.90;;;;;;5071744;28;20048;-69
2021/01/02 07:45:08;;;;;;;30.80;17.13;;;0.90;99.90;;;;;;5064069;28;20045;-69
2021/01/02 07:47:36;;;;;;;28.60;16.83;;;0.90;99.90;;;;;;5067747;28;20041;-70
2021/01/02 07:50:10;;;;;;;32.00;16.90;;;0.90;99.90;;;;;;5049439;28;20055;-71
2021/01/02 07:52:45;;;;;;;31.35;17.90;;;1.00;99.90;;;;;;5070895;28;20059;-71
2021/01/02 07:55:13;;;;;;;25.55;15.55;;;1.00;99.90;;;;;;5073728;28;20098;-69
2021/01/02 07:57:39;;;;;;;31.55;16.83;;;1.00;99.90;;;;;;5071145;28;20051;-70
2021/01/02 08:00:08;;;;;;;27.75;15.93;;;1.00;99.90;;;;;;5066115;28;20052;-70
2021/01/02 08:02:39;;;;;;;30.60;16.92;;;1.10;99.90;;;;;;5072365;28;20055;-70
2021/01/02 08:05:10;;;;;;;28.70;15.98;;;1.10;99.90;;;;;;5069123;28;20048;-70
2021/01/02 08:07:37;;;;;;;27.27;16.77;;;1.20;99.90;;;;;;5070977;28;20052;-68
2021/01/02 08:10:08;;;;;;;31.35;17.67;;;1.20;99.90;;;;;;5061750;28;20056;-69
2021/01/02 08:12:35;;;;;;;30.65;16.13;;;1.20;99.90;;;;;;5072154;28;20064;-68
2021/01/02 08:15:04;;;;;;;25.95;15.38;;;1.20;99.90;;;;;;5078512;28;20067;-68
2021/01/02 08:17:39;;;;;;;24.90;15.63;;;1.30;99.90;;;;;;5063621;28;20052;-66
2021/01/02 08:20:07;;;;;;;26.75;16.27;;;1.30;99.90;;;;;;5072159;28;20048;-65
2021/01/02 08:22:37;;;;;;;32.33;17.27;;;1.30;99.90;;;;;;5072979;28;20051;-66
2021/01/02 08:25:10;;;;;;;32.13;17.27;;;1.40;99.90;;;;;;5069569;28;20118;-67
2021/01/02 08:27:37;;;;;;;29.05;17.20;;;1.40;99.90;;;;;;5059649;28;20128;-68
2021/01/02 08:30:09;;;;;;;30.80;17.63;;;1.50;99.90;;;;;;5052558;28;20055;-67
2021/01/02 08:32:36;;;;;;;;;;;1.50;99.90;;;;;;5058335;28;20044;-67
2021/01/02 08:35:18;;;;;;;29.67;16.52;;;1.50;99.90;;;;;;5072230;28;19920;-69
2021/01/02 08:37:46;;;;;;;29.63;16.55;;;1.50;99.90;;;;;;5056180;28;20046;-68
2021/01/02 08:40:14;;;;;;;31.52;17.88;;;1.50;99.90;;;;;;5072896;28;20051;-69
2021/01/02 08:42:46;;;;;;;26.95;16.17;;;1.60;99.90;;;;;;5054592;28;20052;-69
2021/01/02 08:45:33;;;;;;;31.08;17.15;;;1.60;99.90;;;;;;5073246;28;20399;-67
2021/01/02 08:48:18;;;;;;;29.42;16.80;;;1.60;99.90;;;;;;5063465;28;20052;-67
2021/01/02 08:50:45;;;;;;;27.70;16.98;;;1.60;99.90;;;;;;5069321;28;20131;-68
2021/01/02 08:53:28;;;;;;;29.02;17.13;;;1.60;99.90;;;;;;5054899;28;20099;-69
2021/01/02 08:55:55;;;;;;;24.77;15.77;;;1.70;99.90;;;;;;5071706;28;20155;-70
2021/01/02 08:58:32;;;;;;;27.50;17.17;;;1.70;99.90;;;;;;5072336;28;20486;-67
2021/01/02 09:00:59;;;;;;;27.30;16.35;;;1.70;99.90;;;;;;5072804;28;20048;-67
2021/01/02 09:03:25;;;;;;;29.20;16.58;;;1.70;99.90;;;;;;5076119;28;20044;-68
2021/01/02 09:05:54;;;;;;;29.98;17.98;;;1.80;99.90;;;;;;5073803;28;20052;-66
2021/01/02 09:08:21;;;;;;;27.77;17.05;;;1.80;99.90;;;;;;5071687;28;20056;-67
2021/01/02 09:10:55;;;;;;;29.85;16.90;;;1.80;99.90;;;;;;5071362;28;20529;-66
2021/01/02 09:13:25;;;;;;;29.40;17.55;;;1.90;99.90;;;;;;5071401;28;20529;-66
2021/01/02 09:16:13;;;;;;;28.80;17.90;;;1.90;99.90;;;;;;5081862;28;20445;-67
2021/01/02 09:18:41;;;;;;;26.75;16.80;;;2.00;99.90;;;;;;5071439;28;20049;-66
2021/01/02 09:21:13;;;;;;;30.10;17.27;;;2.00;99.90;;;;;;5070768;28;20051;-69
2021/01/02 09:23:55;;;;;;;27.67;17.33;;;2.00;99.90;;;;;;5072157;28;20067;-68
2021/01/02 09:26:26;;;;;;;27.73;16.85;;;2.00;99.90;;;;;;5070949;28;20105;-68
2021/01/02 09:28:55;;;;;;;28.92;17.42;;;2.00;99.90;;;;;;5072030;28;20044;-69
2021/01/02 09:31:22;;;;;;;32.20;16.40;;;2.00;99.90;;;;;;5071028;28;20048;-68
2021/01/02 09:33:50;;;;;;;28.13;17.27;;;2.00;99.90;;;;;;5053827;28;20163;-69
2021/01/02 09:36:19;;;;;;;29.27;16.27;;;2.00;99.90;;;;;;5062084;28;20754;-66
2021/01/02 09:38:46;;;;;;;29.90;17.05;;;2.00;99.90;;;;;;5068074;28;20128;-67
2021/01/02 09:41:15;;;;;;;28.65;16.83;;;2.00;99.90;;;;;;5064532;28;20078;-66
2021/01/02 09:43:42;;;;;;;27.58;16.40;;;2.00;99.90;;;;;;5069697;28;20044;-66
2021/01/02 09:46:17;;;;;;;26.27;15.40;;;2.00;99.90;;;;;;5070600;28;20044;-67
2021/01/02 09:48:54;;;;;;;27.33;15.35;;;2.00;99.90;;;;;;5066347;28;20048;-67
2021/01/02 09:51:24;;;;;;;28.58;17.10;;;2.00;99.90;;;;;;5070566;28;20106;-68
2021/01/02 09:53:51;;;;;;;27.08;16.08;;;2.00;99.90;;;;;;5067686;28;20057;-67
2021/01/02 09:56:19;;;;;;;29.90;16.58;;;2.00;99.90;;;;;;5070245;28;20406;-66
2021/01/02 09:58:45;;;;;;;29.30;15.85;;;2.10;99.90;;;;;;5070827;28;20487;-67
2021/01/02 10:01:14;;;;;;;30.50;17.27;;;2.00;99.90;;;;;;5069390;28;20044;-66
2021/01/02 10:03:41;;;;;;;28.90;15.68;;;2.00;99.90;;;;;;5069287;28;20045;-66
2021/01/02 10:06:09;;;;;;;28.52;16.30;;;2.10;99.90;;;;;;5069464;28;20525;-66
2021/01/02 10:08:35;;;;;;;28.15;15.27;;;2.10;99.90;;;;;;5070548;28;20418;-66
2021/01/02 10:11:03;;;;;;;27.38;14.82;;;2.10;99.90;;;;;;5056886;28;20055;-67
2021/01/02 10:13:30;;;;;;;28.67;16.95;;;2.20;99.90;;;;;;5069778;28;20060;-66
2021/01/02 10:15:57;;;;;;;26.65;15.35;;;2.40;99.90;;;;;;5069273;28;20080;-68
2021/01/02 10:18:23;;;;;;;28.50;15.48;;;2.60;99.90;;;;;;5069608;28;20049;-67
2021/01/02 10:20:50;;;;;;;26.83;15.40;;;2.80;99.90;;;;;;5068946;28;20052;-68
2021/01/02 10:23:16;;;;;;;27.52;15.82;;;3.00;99.90;;;;;;5070597;28;20094;-67
2021/01/02 10:25:43;;;;;;;23.02;14.40;;;3.20;99.90;;;;;;5069168;28;20052;-67
2021/01/02 10:28:09;;;;;;;22.98;13.45;;;3.40;99.90;;;;;;5070199;28;20062;-66
2021/01/02 10:30:36;;;;;;;24.65;14.52;;;3.70;99.90;;;;;;5066854;28;20056;-68
2021/01/02 10:33:02;;;;;;;25.20;14.15;;;3.80;99.90;;;;;;5066741;28;20524;-67
2021/01/02 10:35:29;;;;;;;22.15;13.98;;;4.00;99.90;;;;;;5068853;28;20128;-67
2021/01/02 10:37:55;;;;;;;23.15;14.23;;;4.20;99.90;;;;;;5067426;28;20055;-66
2021/01/02 10:40:23;;;;;;;24.02;13.38;;;4.20;99.90;;;;;;5069914;28;20551;-68
2021/01/02 10:42:49;;;;;;;24.35;15.00;;;4.30;99.90;;;;;;5069047;28;20044;-67
2021/01/02 10:45:17;;;;;;;26.40;16.38;;;4.30;99.90;;;;;;5068634;28;20045;-67
2021/01/02 10:47:44;;;;;;;23.38;14.27;;;4.30;99.90;;;;;;5068790;28;20040;-67
2021/01/02 10:50:11;;;;;;;23.13;14.20;;;4.30;99.90;;;;;;5070055;28;20053;-67
2021/01/02 10:52:39;;;;;;;23.67;14.52;;;4.30;99.90;;;;;;5069069;28;20047;-67
2021/01/02 10:55:06;;;;;;;22.88;13.75;;;4.30;99.90;;;;;;5070338;28;20513;-67
2021/01/02 10:57:32;;;;;;;24.08;13.82;;;4.30;99.90;;;;;;5068903;28;20040;-66
2021/01/02 10:59:59;;;;;;;22.90;14.38;;;4.30;99.90;;;;;;5060032;28;20160;-67
2021/01/02 11:02:26;;;;;;;21.80;13.50;;;4.20;99.90;;;;;;5069976;28;20127;-67
2021/01/02 11:04:53;;;;;;;22.60;14.27;;;4.20;99.90;;;;;;5077605;28;20041;-67
2021/01/02 11:07:24;;;;;;;23.48;14.63;;;4.30;99.90;;;;;;5072693;28;20355;-67
2021/01/02 11:09:52;;;;;;;22.77;13.70;;;4.30;99.90;;;;;;5066730;28;20072;-67
2021/01/02 11:12:20;;;;;;;22.85;14.00;;;4.30;99.90;;;;;;5067770;28;20067;-67
2021/01/02 11:14:48;;;;;;;22.33;13.77;;;4.40;99.90;;;;;;5073939;28;20052;-67
2021/01/02 11:17:14;;;;;;;23.27;13.70;;;4.40;99.90;;;;;;5073248;28;20040;-67
2021/01/02 11:19:44;;;;;;;20.00;12.50;;;4.50;99.90;;;;;;5074840;28;20127;-67
2021/01/02 11:22:12;;;;;;;22.05;12.45;;;4.40;99.90;;;;;;5073049;28;20402;-66
2021/01/02 11:24:41;;;;;;;21.00;12.35;;;4.40;99.90;;;;;;5056750;28;20410;-67
2021/01/02 11:27:08;;;;;;;20.73;12.38;;;4.50;99.90;;;;;;5063478;28;20096;-66
2021/01/02 11:29:35;;;;;;;20.95;12.95;;;4.40;99.90;;;;;;5073997;28;20045;-67
2021/01/02 11:32:08;;;;;;;21.52;12.38;;;4.50;99.90;;;;;;5072126;28;20066;-66
2021/01/02 11:34:35;;;;;;;20.42;13.10;;;4.60;99.90;;;;;;5073798;28;20063;-67
2021/01/02 11:37:03;;;;;;;20.95;13.00;;;4.70;99.90;;;;;;5069640;28;20048;-66
2021/01/02 11:39:31;;;;;;;19.83;11.95;;;4.70;99.90;;;;;;5067680;28;20048;-66
2021/01/02 11:42:00;;;;;;;19.10;12.30;;;4.80;99.90;;;;;;5073085;28;20127;-68
2021/01/02 11:44:27;;;;;;;21.20;12.38;;;4.80;99.90;;;;;;5074111;28;20051;-66
2021/01/02 11:46:55;;;;;;;22.95;12.88;;;4.70;99.90;;;;;;5072760;28;20079;-68
2021/01/02 11:49:25;;;;;;;20.45;13.43;;;4.60;99.90;;;;;;5074753;28;20048;-68
2021/01/02 11:51:55;;;;;;;18.65;11.70;;;4.60;99.90;;;;;;5073320;28;20096;-70
2021/01/02 11:54:23;;;;;;;19.42;12.75;;;4.40;99.90;;;;;;5074487;28;20047;-67
2021/01/02 11:56:50;;;;;;;20.02;12.52;;;4.30;99.90;;;;;;5070688;28;20087;-68
2021/01/02 11:59:18;;;;;;;18.20;11.77;;;4.20;99.90;;;;;;5054996;28;20610;-67
2021/01/02 12:01:47;;;;;;;18.33;11.88;;;4.10;99.90;;;;;;5072867;28;20455;-67
2021/01/02 12:04:16;;;;;;;22.88;13.60;;;4.10;99.90;;;;;;5079958;28;20529;-68
2021/01/02 12:06:42;;;;;;;20.23;12.50;;;4.10;99.90;;;;;;5072253;28;20056;-69
2021/01/02 12:09:10;;;;;;;19.85;12.00;;;4.10;99.90;;;;;;5073562;28;20131;-67
2021/01/02 12:11:42;;;;;;;21.20;12.23;;;4.10;99.90;;;;;;5063198;28;20052;-68
2021/01/02 12:14:11;;;;;;;26.77;14.52;;;4.20;99.90;;;;;;5072144;28;20511;-68
2021/01/02 12:16:40;;;;;;;26.45;13.25;;;4.10;99.90;;;;;;5056830;28;20045;-68
2021/01/02 12:19:10;;;;;;;18.70;11.73;;;4.00;99.90;;;;;;5067340;28;20076;-67
2021/01/02 12:21:36;;;;;;;19.55;12.10;;;3.90;99.90;;;;;;5072774;28;20054;-67
2021/01/02 12:24:04;;;;;;;20.40;12.30;;;3.90;99.90;;;;;;5053653;28;20048;-68
2021/01/02 12:26:30;;;;;;;19.15;11.70;;;3.80;99.90;;;;;;5070794;28;20136;-67
2021/01/02 12:28:57;;;;;;;21.42;12.57;;;3.80;99.90;;;;;;5072465;28;20084;-68
2021/01/02 12:31:45;;;;;;;20.10;12.35;;;3.80;99.90;;;;;;5057899;28;20098;-67
2021/01/02 12:34:14;;;;;;;18.15;11.95;;;3.60;99.90;;;;;;5071011;28;20056;-68
2021/01/02 12:36:43;;;;;;;22.02;13.98;;;3.60;99.90;;;;;;5071136;28;20079;-67
2021/01/02 12:39:17;;;;;;;18.88;11.65;;;3.60;99.90;;;;;;5072368;28;20047;-68
2021/01/02 12:41:43;;;;;;;21.58;12.05;;;3.50;99.90;;;;;;5070517;28;20044;-68
2021/01/02 12:44:10;;;;;;;19.70;12.27;;;3.40;99.90;;;;;;5064307;28;20049;-67
2021/01/02 12:46:37;;;;;;;19.95;11.60;;;3.40;99.90;;;;;;5064160;28;20098;-68
2021/01/02 12:49:04;;;;;;;20.25;12.63;;;3.40;99.90;;;;;;5068972;28;20044;-68
2021/01/02 12:51:30;;;;;;;20.05;12.48;;;3.40;99.90;;;;;;5071232;28;20074;-68
2021/01/02 12:53:56;;;;;;;19.85;12.18;;;3.40;99.90;;;;;;5053582;28;20056;-68
2021/01/02 12:56:23;;;;;;;20.92;12.55;;;3.30;99.90;;;;;;5061428;28;20059;-67
2021/01/02 12:58:49;;;;;;;21.85;12.98;;;3.20;99.90;;;;;;5054265;28;20044;-66
2021/01/02 13:01:16;;;;;;;26.92;15.00;;;3.20;99.90;;;;;;5046092;28;20053;-68
2021/01/02 13:03:43;;;;;;;24.75;14.18;;;3.10;99.90;;;;;;5071355;28;20063;-67